Airfield :
LOGIN :

Register | Disclaimer

   EN    FR    IT 

 










Legend :    VFR   Marginal VFR   IFR   Intensive IFR   Very Intensive IFR
Visi :
Ceiling :
>= 8 km
>= 3000ft
5 to 8 km
1000 to 3000 ft
1500m to 5 km
500 to 1000 ft
800 to 1500m
200 to 500 ft
< 800m
< 200 ft
Symbols :   Thunderstorms  Fog  Heavy snow  Heavy precipitations  Wind > 20 kt
SIGMETs :     Misc.  Thunderstorms  Icing  Turbulence  Mountain Waves  Volcanic Ashes







- Airport Elevation : 294 ft
- IATA code : NAP


LIRN - Naples Capodichino

CURRENT METAR :
  • 191750Z 18015G25KT 150V220 9999 -TSRA FEW020CB SCT025 BKN040 18/14 Q1001 NOSIG

EXPIRED METARs :
  • 191720Z 16016G32KT 130V190 9999 TSRA FEW020CB SCT025 BKN040 17/13 Q1000 NOSIG
  • 191650Z 16011KT 060V200 9999 TS FEW020CB SCT025 BKN040 17/11 Q1000 NOSIG
  • 191620Z VRB02KT 8000 -TSRA FEW020CB SCT025 BKN040 14/11 Q1001 NOSIG
  • 191550Z 04003KT 350V070 8000 -TSRA FEW020CB SCT025 BKN040 13/11 Q1002 NOSIG
  • 191520Z 06005KT 020V090 9999 SCT030 BKN050 13/10 Q1002 NOSIG

TAF TAF LIRN
Valid from the 19 at 18:00 until the 20 at 18:00 UTC


191700Z 1918/2018 18014KT 9999 FEW030
TEMPO 1918/1920 TSRA
TEMPO 2006/2012 TSRA
No reported NOTAMs for that airfield.
2 SIGMETs reported for the Roma FIR (LIRR) :
 
Severe turbulence
LIRR SIGMET 9 VALID 191700/192000 LIIB
LIRR ROMA FIR SEV TURB FCST WI N4253 E01304 - N4121 E01425 - N4112 E01507 - N3901 E00759 - N4055 E00759 - N4121 E00820 - N4120 E00945 - N4149 E00947 - N4253 E01304 FL240/360 STNR NC=
Embedded thunderstorms
LIRR SIGMET 10 VALID 191710/192010 LIIB
LIRR ROMA FIR EMBD TS FCST WI N4223 E01235 - N4217 E01337 - N4124 E01418 - N4109 E01507 - N3925 E01607 - N3801 E01015 - N3859 E00802 - N3955 E00759 - N4223 E01235 TOP FL390 STNR NC=



MET'MAP, your aeronautical weather chart ! - Copyright ORBIFLY December 2007 - Disclaimer

ORBIFLY MET'MAP TEAM :

Programming & Development : Alexandra Zaïnal
Concept & Development : Baudouin d'Aumeries
Co-Development & Prog : Marc-Olivier Méhu
Technical & hardware support : Manuel Goepfert

Contact : metmap@orbifly.com




SOURCES & CREDITS :

   NOAA